createdAt,value
2023-04-21T00:01:30.234Z,80.50
2023-04-21T00:03:57.786Z,80.59
2023-04-21T00:06:26.749Z,82.17
2023-04-21T00:08:54.889Z,81.47
2023-04-21T00:11:22.501Z,80.67
2023-04-21T00:13:50.104Z,82.11
2023-04-21T00:16:18.930Z,80.02
2023-04-21T00:18:46.371Z,78.51
2023-04-21T00:21:13.770Z,80.04
2023-04-21T00:23:41.205Z,80.06
2023-04-21T00:26:08.634Z,81.22
2023-04-21T00:28:36.128Z,81.42
2023-04-21T00:31:03.547Z,79.64
2023-04-21T00:33:32.368Z,81.36
2023-04-21T00:36:00.008Z,78.72
2023-04-21T00:38:27.460Z,82.26
2023-04-21T00:40:54.908Z,81.28
2023-04-21T00:43:22.371Z,80.79
2023-04-21T00:45:49.766Z,80.96
2023-04-21T00:48:17.220Z,80.21
2023-04-21T00:50:46.413Z,81.68
2023-04-21T00:53:15.392Z,82.36
2023-04-21T00:55:42.947Z,80.82
2023-04-21T00:58:10.457Z,82.13
2023-04-21T01:00:39.399Z,80.77
2023-04-21T01:03:08.482Z,81.02
2023-04-21T01:05:36.085Z,82.14
2023-04-21T01:08:07.233Z,82.34
2023-04-21T01:10:34.665Z,82.69
2023-04-21T01:13:02.126Z,80.80
2023-04-21T01:15:31.284Z,80.63
2023-04-21T01:17:59.137Z,81.41
2023-04-21T01:20:29.689Z,80.94
2023-04-21T01:22:58.481Z,78.90
2023-04-21T01:25:28.319Z,77.73
2023-04-21T01:27:55.793Z,80.72
2023-04-21T01:30:23.269Z,79.27
2023-04-21T01:32:50.816Z,78.94
2023-04-21T01:35:18.450Z,77.97
2023-04-21T01:37:45.922Z,80.25
2023-04-21T01:40:14.802Z,80.43
2023-04-21T01:42:43.569Z,80.05
2023-04-21T01:45:11.577Z,80.18
2023-04-21T01:47:39.137Z,80.01
2023-04-21T01:50:07.826Z,79.06
2023-04-21T01:52:35.460Z,78.98
2023-04-21T01:55:03.255Z,77.30
2023-04-21T01:57:32.071Z,78.86
2023-04-21T01:59:59.522Z,77.81
2023-04-21T02:02:27.051Z,78.28
2023-04-21T02:04:55.160Z,77.49
2023-04-21T02:07:22.641Z,78.43
2023-04-21T02:09:50.096Z,77.15
2023-04-21T02:12:17.786Z,78.44
2023-04-21T02:14:47.929Z,78.20
2023-04-21T02:17:15.395Z,76.88
2023-04-21T02:19:42.816Z,77.85
2023-04-21T02:22:10.798Z,76.74
2023-04-21T02:24:38.225Z,77.71
2023-04-21T02:27:05.798Z,78.41
2023-04-21T02:29:33.242Z,77.39
2023-04-21T02:32:11.076Z,77.96
2023-04-21T02:34:49.485Z,77.57
2023-04-21T02:37:16.902Z,77.46
2023-04-21T02:39:44.841Z,76.38
2023-04-21T02:42:12.269Z,77.98
2023-04-21T02:44:39.712Z,77.79
2023-04-21T02:47:08.497Z,78.10
2023-04-21T02:49:35.917Z,78.13
2023-04-21T02:52:03.345Z,76.80
2023-04-21T02:54:30.762Z,77.05
2023-04-21T02:56:58.214Z,77.87
2023-04-21T02:59:25.652Z,78.25
2023-04-21T03:01:53.049Z,78.04
2023-04-21T03:04:21.822Z,77.69
2023-04-21T03:06:49.345Z,77.88
2023-04-21T03:09:16.858Z,76.62
2023-04-21T03:11:44.351Z,77.73
2023-04-21T03:14:11.797Z,77.75
2023-04-21T03:16:39.286Z,78.00
2023-04-21T03:19:06.734Z,77.08
2023-04-21T03:21:37.924Z,75.25
2023-04-21T03:24:06.416Z,76.54
2023-04-21T03:26:33.864Z,77.26
2023-04-21T03:29:01.364Z,76.58
2023-04-21T03:31:28.891Z,77.56
2023-04-21T03:33:56.349Z,78.35
2023-04-21T03:36:23.949Z,77.04
2023-04-21T03:38:52.749Z,77.44
2023-04-21T03:41:20.261Z,78.70
2023-04-21T03:43:47.693Z,78.06
2023-04-21T03:46:19.640Z,78.36
2023-04-21T03:48:48.048Z,78.06
2023-04-21T03:51:15.975Z,78.60
2023-04-21T03:53:43.481Z,78.30
2023-04-21T03:56:12.265Z,78.15
2023-04-21T03:58:39.712Z,78.69
2023-04-21T04:01:08.190Z,77.92
2023-04-21T04:03:35.783Z,77.77
2023-04-21T04:06:04.136Z,77.33
2023-04-21T04:08:31.899Z,77.63
2023-04-21T04:10:59.380Z,77.83
2023-04-21T04:13:29.381Z,78.65
2023-04-21T04:15:57.851Z,77.05
2023-04-21T04:18:25.468Z,78.05
2023-04-21T04:20:52.931Z,78.17
2023-04-21T04:23:20.461Z,78.05
2023-04-21T04:25:47.958Z,78.49
2023-04-21T04:28:15.589Z,75.59
2023-04-21T04:30:45.416Z,73.75
2023-04-21T04:33:12.939Z,74.19
2023-04-21T04:35:40.390Z,74.23
2023-04-21T04:38:08.337Z,76.10
2023-04-21T04:40:35.750Z,75.77
2023-04-21T04:43:03.441Z,74.82
2023-04-21T04:45:33.098Z,75.24
2023-04-21T04:48:01.878Z,75.31
2023-04-21T04:50:29.444Z,76.56
2023-04-21T04:52:57.557Z,75.50
2023-04-21T04:55:25.574Z,75.55
2023-04-21T04:57:53.018Z,76.67
2023-04-21T05:00:21.112Z,75.49
2023-04-21T05:02:48.858Z,75.39
2023-04-21T05:05:17.977Z,74.75
2023-04-21T05:07:45.737Z,75.07
2023-04-21T05:10:13.155Z,74.15
2023-04-21T05:12:40.619Z,73.50
2023-04-21T05:15:09.081Z,73.67
2023-04-21T05:17:36.538Z,72.38
2023-04-21T05:20:05.577Z,74.57
2023-04-21T05:22:38.121Z,72.38
2023-04-21T05:25:06.057Z,72.99
2023-04-21T05:27:34.059Z,71.35
2023-04-21T05:30:01.668Z,69.07
2023-04-21T05:32:29.351Z,64.58
2023-04-21T05:34:56.949Z,65.83
2023-04-21T05:37:24.378Z,62.26
2023-04-21T05:39:53.536Z,61.08
2023-04-21T05:42:21.814Z,62.84
2023-04-21T05:44:49.279Z,63.22
2023-04-21T05:47:16.683Z,65.93
2023-04-21T05:49:50.006Z,62.46
2023-04-21T05:52:18.359Z,62.13
2023-04-21T05:54:45.800Z,60.39
2023-04-21T05:57:14.929Z,61.85
2023-04-21T05:59:42.373Z,54.25
2023-04-21T06:02:09.964Z,57.06
2023-04-21T06:04:37.610Z,62.77
2023-04-21T06:07:09.626Z,61.08
2023-04-21T06:09:38.298Z,56.64
2023-04-21T06:12:06.167Z,58.51
2023-04-21T06:14:34.953Z,58.26
2023-04-21T06:17:02.394Z,63.01
2023-04-21T06:19:29.867Z,55.67
2023-04-21T06:21:57.697Z,59.58
2023-04-21T06:24:25.961Z,59.99
2023-04-21T06:26:53.626Z,63.04
2023-04-21T06:29:21.224Z,64.38
2023-04-21T06:31:50.469Z,62.98
2023-04-21T06:34:18.081Z,62.48
2023-04-21T06:36:45.823Z,63.02
2023-04-21T06:39:13.269Z,62.18
2023-04-21T06:41:40.797Z,63.96
2023-04-21T06:44:08.189Z,66.46
2023-04-21T06:46:35.876Z,64.95
2023-04-21T06:49:04.757Z,65.45
2023-04-21T06:51:32.216Z,63.93
2023-04-21T06:53:59.654Z,62.89
2023-04-21T06:56:28.073Z,61.92
2023-04-21T06:58:55.829Z,61.75
2023-04-21T07:01:24.373Z,62.19
2023-04-21T07:03:52.171Z,64.12
2023-04-21T07:06:21.056Z,63.59
2023-04-21T07:08:48.510Z,64.36
2023-04-21T07:11:15.949Z,63.53
2023-04-21T07:13:43.435Z,61.95
2023-04-21T07:16:10.990Z,63.48
2023-04-21T07:18:40.418Z,62.88
2023-04-21T07:21:07.806Z,63.11
2023-04-21T07:23:36.562Z,64.58
2023-04-21T07:26:03.991Z,63.79
2023-04-21T07:28:31.417Z,63.31
2023-04-21T07:30:59.991Z,62.80
2023-04-21T07:33:28.373Z,64.12
2023-04-21T07:35:55.851Z,62.14
2023-04-21T07:38:23.530Z,61.86
2023-04-21T07:40:52.317Z,61.50
2023-04-21T07:43:19.996Z,62.00
2023-04-21T07:45:47.566Z,62.44
2023-04-21T07:48:15.052Z,61.08
2023-04-21T07:50:42.590Z,61.42
2023-04-21T07:53:10.085Z,61.57
2023-04-21T07:55:37.694Z,62.03
2023-04-21T07:58:06.675Z,60.34
2023-04-21T08:00:34.387Z,60.28
2023-04-21T08:03:01.948Z,59.71
2023-04-21T08:05:34.024Z,59.05
2023-04-21T08:08:03.288Z,58.53
2023-04-21T08:10:30.798Z,58.50
2023-04-21T08:12:58.258Z,59.27
2023-04-21T08:15:27.053Z,58.65
2023-04-21T08:17:55.046Z,58.62
2023-04-21T08:20:22.545Z,57.93
2023-04-21T08:22:49.983Z,59.73
2023-04-21T08:25:17.406Z,57.61
2023-04-21T08:27:44.851Z,58.07
2023-04-21T08:30:13.360Z,57.64
2023-04-21T08:32:42.189Z,57.94
2023-04-21T08:35:10.289Z,57.39
2023-04-21T08:37:38.264Z,57.33
2023-04-21T08:40:06.966Z,56.56
2023-04-21T08:42:34.888Z,57.45
2023-04-21T08:45:02.351Z,57.35
2023-04-21T08:47:30.242Z,55.34
2023-04-21T08:50:00.103Z,56.13
2023-04-21T08:52:27.561Z,55.71
2023-04-21T08:54:56.051Z,56.05
2023-04-21T08:57:23.526Z,55.74
2023-04-21T08:59:50.988Z,55.45
2023-04-21T09:02:20.244Z,54.19
2023-04-21T09:04:50.456Z,54.50
2023-04-21T09:07:33.709Z,53.01
2023-04-21T09:10:01.879Z,54.51
2023-04-21T09:12:30.058Z,54.94
2023-04-21T09:14:58.781Z,56.09
2023-04-21T09:17:32.303Z,55.51
2023-04-21T09:20:14.418Z,55.01
2023-04-21T09:22:43.379Z,55.48
2023-04-21T09:25:10.918Z,54.70
2023-04-21T09:27:38.863Z,53.63
2023-04-21T09:30:08.252Z,53.83
2023-04-21T09:32:39.839Z,54.17
2023-04-21T09:35:10.944Z,54.19
2023-04-21T09:37:39.317Z,54.02
2023-04-21T09:40:09.742Z,55.04
2023-04-21T09:42:39.164Z,54.47
2023-04-21T09:45:29.105Z,54.27
2023-04-21T09:48:00.607Z,53.98
2023-04-21T09:53:02.547Z,53.02
2023-04-21T09:55:31.896Z,52.96
2023-04-21T09:58:01.961Z,51.74
2023-04-21T10:00:31.135Z,52.33
2023-04-21T10:03:01.661Z,51.30
2023-04-21T10:05:29.772Z,52.62
2023-04-21T10:07:57.723Z,51.69
2023-04-21T10:10:28.406Z,51.80
2023-04-21T10:12:58.772Z,52.39
2023-04-21T10:15:33.528Z,49.18
2023-04-21T10:18:15.143Z,51.04
2023-04-21T10:20:56.115Z,51.45
2023-04-21T10:23:40.460Z,51.70
2023-04-21T10:26:13.122Z,50.37
2023-04-21T10:28:52.994Z,49.76
2023-04-21T10:31:31.942Z,48.90
2023-04-21T10:34:30.981Z,47.06
2023-04-21T10:37:16.121Z,46.12
2023-04-21T10:39:47.415Z,46.64
2023-04-21T10:42:26.237Z,46.92
2023-04-21T10:45:04.147Z,46.45
2023-04-21T10:47:37.860Z,46.47
2023-04-21T10:50:14.265Z,46.64
2023-04-21T10:52:45.310Z,46.33
2023-04-21T10:55:15.677Z,45.30
2023-04-21T10:57:46.204Z,45.31
2023-04-21T11:00:19.307Z,44.72
2023-04-21T11:02:54.856Z,46.48
2023-04-21T11:05:28.712Z,46.17
2023-04-21T11:08:03.811Z,46.51
2023-04-21T11:10:31.255Z,46.14
2023-04-21T11:12:59.001Z,45.73
2023-04-21T11:15:27.843Z,46.39
2023-04-21T11:17:55.613Z,45.88
2023-04-21T11:20:23.348Z,46.22
2023-04-21T11:22:53.567Z,47.16
2023-04-21T11:25:20.983Z,46.61
2023-04-21T11:27:55.875Z,45.80
2023-04-21T11:30:34.590Z,46.94
2023-04-21T11:33:02.746Z,45.65
2023-04-21T11:35:30.771Z,44.31
2023-04-21T11:37:58.167Z,44.95
2023-04-21T11:40:25.587Z,44.59
2023-04-21T11:42:53.658Z,43.01
2023-04-21T11:45:22.327Z,43.56
2023-04-21T11:47:51.641Z,44.84
2023-04-21T11:50:32.179Z,46.09
2023-04-21T11:52:59.614Z,44.43
2023-04-21T11:55:29.644Z,44.42
2023-04-21T11:57:58.287Z,44.48
2023-04-21T12:00:31.058Z,43.64
2023-04-21T12:02:59.920Z,42.92
2023-04-21T12:05:36.016Z,44.02
2023-04-21T12:08:05.072Z,43.40
2023-04-21T12:10:33.191Z,44.57
2023-04-21T12:13:00.831Z,44.80
2023-04-21T12:15:31.136Z,44.16
2023-04-21T12:17:59.966Z,43.06
2023-04-21T12:20:31.422Z,41.64
2023-04-21T12:22:59.018Z,42.86
2023-04-21T12:25:26.991Z,41.78
2023-04-21T12:27:59.069Z,42.86
2023-04-21T12:30:26.476Z,43.28
2023-04-21T12:32:55.767Z,44.65
2023-04-21T12:35:24.948Z,43.62
2023-04-21T12:37:52.390Z,44.08
2023-04-21T12:40:19.915Z,44.31
2023-04-21T12:42:48.651Z,43.54
2023-04-21T12:45:16.196Z,42.50
2023-04-21T12:47:46.785Z,43.09
2023-04-21T12:50:14.798Z,43.30
2023-04-21T12:52:43.539Z,44.11
2023-04-21T12:55:11.184Z,44.56
2023-04-21T12:57:38.631Z,44.24
2023-04-21T13:00:08.697Z,43.74
2023-04-21T13:02:38.079Z,43.86
2023-04-21T13:05:06.434Z,43.52
2023-04-21T13:07:34.906Z,43.42
2023-04-21T13:10:04.894Z,43.58
2023-04-21T13:12:32.296Z,43.63
2023-04-21T13:15:00.055Z,44.32
2023-04-21T13:17:27.623Z,43.34
2023-04-21T13:19:55.063Z,43.35
2023-04-21T13:22:22.906Z,43.72
2023-04-21T13:24:50.381Z,42.88
2023-04-21T13:27:19.211Z,42.98
2023-04-21T13:29:47.654Z,42.94
2023-04-21T13:32:15.361Z,43.27
2023-04-21T13:34:42.864Z,43.26
2023-04-21T13:37:12.486Z,43.14
2023-04-21T13:39:40.020Z,42.84
2023-04-21T13:42:07.759Z,42.14
2023-04-21T13:44:36.848Z,42.79
2023-04-21T13:47:06.144Z,43.35
2023-04-21T13:49:35.730Z,42.34
2023-04-21T13:52:03.148Z,42.28
2023-04-21T13:54:31.289Z,42.17
2023-04-21T13:56:58.910Z,42.32
2023-04-21T13:59:26.774Z,43.23
2023-04-21T14:01:55.555Z,43.88
2023-04-21T14:04:23.154Z,43.70
2023-04-21T14:06:51.148Z,42.54
2023-04-21T14:09:18.673Z,42.39
2023-04-21T14:11:46.079Z,42.99
2023-04-21T14:14:18.949Z,42.19
2023-04-21T14:16:52.365Z,42.80
2023-04-21T14:19:21.251Z,42.99
2023-04-21T14:21:48.657Z,42.54
2023-04-21T14:24:16.099Z,42.49
2023-04-21T14:26:43.662Z,42.83
2023-04-21T14:29:11.108Z,43.42
2023-04-21T14:31:38.590Z,43.63
2023-04-21T14:34:06.149Z,43.63
2023-04-21T14:36:35.096Z,43.16
2023-04-21T14:39:02.579Z,43.19
2023-04-21T14:41:30.793Z,43.25
2023-04-21T14:43:59.187Z,43.24
2023-04-21T14:46:26.760Z,43.26
2023-04-21T14:48:54.599Z,43.65
2023-04-21T14:51:22.462Z,43.81
2023-04-21T14:53:51.392Z,43.65
2023-04-21T14:56:19.764Z,43.34
2023-04-21T14:58:47.279Z,43.56
2023-04-21T15:01:15.059Z,43.25
2023-04-21T15:03:43.116Z,43.37
2023-04-21T15:06:10.858Z,42.96
2023-04-21T15:08:41.138Z,43.23
2023-04-21T15:11:10.061Z,42.98
2023-04-21T15:13:37.582Z,43.19
2023-04-21T15:16:05.195Z,43.10
2023-04-21T15:18:32.604Z,43.24
2023-04-21T15:21:00.130Z,43.42
2023-04-21T15:23:29.049Z,42.68
2023-04-21T15:25:58.123Z,43.41
2023-04-21T15:28:27.072Z,42.52
2023-04-21T15:30:54.505Z,42.43
2023-04-21T15:33:21.894Z,43.02
2023-04-21T15:35:49.300Z,43.25
2023-04-21T15:38:16.772Z,43.10
2023-04-21T15:40:59.064Z,43.15
2023-04-21T15:43:28.810Z,43.23
2023-04-21T15:45:56.308Z,43.03
2023-04-21T15:48:24.034Z,43.31
2023-04-21T15:50:51.750Z,43.48
2023-04-21T15:53:20.068Z,43.44
2023-04-21T15:55:48.092Z,43.18
2023-04-21T15:58:15.499Z,43.07
2023-04-21T16:00:45.821Z,43.61
2023-04-21T16:03:14.165Z,42.92
2023-04-21T16:05:41.824Z,43.41
2023-04-21T16:08:09.435Z,43.39
2023-04-21T16:10:36.995Z,42.98
2023-04-21T16:13:04.574Z,41.60
2023-04-21T16:15:32.138Z,43.11
2023-04-21T16:18:02.260Z,43.12
2023-04-21T16:20:30.029Z,42.61
2023-04-21T16:22:57.502Z,43.26
2023-04-21T16:25:25.007Z,43.58
2023-04-21T16:27:52.462Z,43.15
2023-04-21T16:30:20.153Z,43.39
2023-04-21T16:32:47.654Z,42.28
2023-04-21T16:35:16.721Z,42.12
2023-04-21T16:37:44.446Z,42.81
2023-04-21T16:40:12.533Z,42.85
2023-04-21T16:42:42.237Z,43.61
2023-04-21T16:45:10.520Z,43.50
2023-04-21T16:47:41.676Z,43.51
2023-04-21T16:50:10.790Z,43.21
2023-04-21T16:52:39.873Z,43.34
2023-04-21T16:55:08.804Z,43.24
2023-04-21T16:57:36.282Z,43.25
2023-04-21T17:00:06.738Z,43.47
2023-04-21T17:02:34.577Z,43.21
2023-04-21T17:05:03.632Z,43.17
2023-04-21T17:07:32.042Z,42.63
2023-04-21T17:10:04.005Z,42.51
2023-04-21T17:12:31.403Z,42.63
2023-04-21T17:14:58.866Z,43.12
2023-04-21T17:17:26.441Z,42.74
2023-04-21T17:19:54.472Z,43.59
2023-04-21T17:22:22.287Z,43.36
2023-04-21T17:24:53.554Z,43.75
2023-04-21T17:27:22.952Z,43.97
2023-04-21T17:29:51.116Z,43.30
2023-04-21T17:32:18.807Z,43.97
2023-04-21T17:34:46.366Z,43.48
2023-04-21T17:37:13.950Z,43.88
2023-04-21T17:39:41.758Z,43.53
2023-04-21T17:42:09.233Z,43.62
2023-04-21T17:44:40.065Z,43.78
2023-04-21T17:47:08.809Z,44.06
2023-04-21T17:49:37.709Z,43.34
2023-04-21T17:52:08.338Z,43.82
2023-04-21T17:54:37.879Z,43.83
2023-04-21T17:57:07.038Z,43.80
2023-04-21T17:59:34.667Z,44.20
2023-04-21T18:02:13.657Z,44.32
2023-04-21T18:04:48.614Z,44.32
2023-04-21T18:07:20.996Z,44.67
2023-04-21T18:09:51.681Z,44.46
2023-04-21T18:12:22.215Z,44.35
2023-04-21T18:15:13.296Z,44.80
2023-04-21T18:17:51.956Z,44.17
2023-04-21T18:20:27.424Z,46.18
2023-04-21T18:22:55.709Z,45.64
2023-04-21T18:25:45.281Z,44.69
2023-04-21T18:28:24.515Z,46.53
2023-04-21T18:31:00.352Z,45.81
2023-04-21T18:33:36.703Z,45.66
2023-04-21T18:36:09.875Z,45.51
2023-04-21T18:38:45.146Z,45.18
2023-04-21T18:41:20.026Z,45.67
2023-04-21T18:44:04.544Z,44.77
2023-04-21T18:46:35.911Z,45.00
2023-04-21T18:49:12.971Z,44.95
2023-04-21T18:52:00.177Z,44.64
2023-04-21T18:54:34.011Z,45.05
2023-04-21T18:57:03.118Z,45.25
2023-04-21T18:59:33.325Z,45.16
2023-04-21T19:02:13.384Z,45.03
2023-04-21T19:04:55.296Z,44.78
2023-04-21T19:07:28.645Z,45.99
2023-04-21T19:10:08.316Z,46.42
2023-04-21T19:12:51.231Z,45.92
2023-04-21T19:15:25.374Z,46.29
2023-04-21T19:17:57.303Z,45.25
2023-04-21T19:20:27.887Z,44.93
2023-04-21T19:23:03.762Z,45.36
2023-04-21T19:25:33.255Z,45.05
2023-04-21T19:28:14.447Z,45.50
2023-04-21T19:30:45.505Z,45.88
2023-04-21T19:33:22.767Z,45.72
2023-04-21T19:35:57.679Z,45.34
2023-04-21T19:38:32.199Z,45.97
2023-04-21T19:41:03.231Z,45.21
2023-04-21T19:43:44.176Z,46.22
2023-04-21T19:46:20.432Z,45.89
2023-04-21T19:49:13.204Z,46.44
2023-04-21T19:51:49.831Z,46.43
2023-04-21T19:54:33.496Z,46.06
2023-04-21T19:57:19.834Z,47.04
2023-04-21T19:59:55.654Z,46.67
2023-04-21T20:02:35.107Z,46.61
2023-04-21T20:05:18.500Z,47.01
2023-04-21T20:07:47.839Z,46.60
2023-04-21T20:10:19.351Z,46.24
2023-04-21T20:12:49.648Z,45.91
2023-04-21T20:15:25.196Z,46.56
2023-04-21T20:18:09.030Z,47.02
2023-04-21T20:20:43.321Z,47.00
2023-04-21T20:23:15.550Z,47.28
2023-04-21T20:25:46.795Z,46.82
2023-04-21T20:28:18.281Z,47.20
2023-04-21T20:30:47.736Z,47.76
2023-04-21T20:33:23.450Z,46.62
2023-04-21T20:36:07.495Z,46.76
2023-04-21T20:39:02.761Z,46.55
2023-04-21T20:41:48.098Z,47.55
2023-04-21T20:44:38.540Z,47.35
2023-04-21T20:47:14.311Z,47.68
2023-04-21T20:49:46.169Z,48.00
2023-04-21T20:52:36.962Z,46.94
2023-04-21T20:55:21.924Z,47.43
2023-04-21T20:57:55.735Z,47.20
2023-04-21T21:00:26.737Z,47.59
2023-04-21T21:02:54.991Z,47.61
2023-04-21T21:05:35.264Z,48.22
2023-04-21T21:08:17.158Z,48.42
2023-04-21T21:10:48.363Z,48.40
2023-04-21T21:13:22.524Z,47.21
2023-04-21T21:15:54.395Z,48.03
2023-04-21T21:18:25.336Z,48.91
2023-04-21T21:21:06.860Z,48.36
2023-04-21T21:23:45.772Z,47.38
2023-04-21T21:26:21.822Z,48.73
2023-04-21T21:28:53.166Z,50.30
2023-04-21T21:31:24.341Z,49.10
2023-04-21T21:34:15.652Z,50.35
2023-04-21T21:37:07.768Z,52.65
2023-04-21T21:39:38.937Z,50.24
2023-04-21T21:42:18.340Z,51.26
2023-04-21T21:44:48.811Z,50.98
2023-04-21T21:47:25.582Z,50.52
2023-04-21T21:50:01.310Z,51.48
2023-04-21T21:52:35.024Z,52.26
2023-04-21T21:55:11.008Z,51.15
2023-04-21T21:57:49.287Z,49.68
2023-04-21T22:00:19.016Z,51.56
2023-04-21T22:02:51.823Z,49.86
2023-04-21T22:05:23.223Z,49.89
2023-04-21T22:07:51.698Z,50.87
2023-04-21T22:10:28.508Z,49.81
2023-04-21T22:12:59.178Z,50.50
2023-04-21T22:15:27.213Z,49.44
2023-04-21T22:17:57.996Z,49.04
2023-04-21T22:20:31.314Z,49.92
2023-04-21T22:23:01.482Z,50.43
2023-04-21T22:25:29.618Z,50.24
2023-04-21T22:27:59.105Z,50.28
2023-04-21T22:30:32.021Z,49.73
2023-04-21T22:33:04.496Z,51.27
2023-04-21T22:35:41.348Z,51.30
2023-04-21T22:38:16.993Z,51.07
2023-04-21T22:40:46.882Z,49.84
2023-04-21T22:43:20.377Z,50.42
2023-04-21T22:46:02.439Z,51.01
2023-04-21T22:48:30.231Z,51.13
2023-04-21T22:50:57.719Z,50.66
2023-04-21T22:53:25.257Z,49.97
2023-04-21T22:55:52.760Z,50.39
2023-04-21T22:58:22.196Z,51.44
2023-04-21T23:00:49.728Z,51.10
2023-04-21T23:03:17.322Z,51.95
2023-04-21T23:05:44.942Z,51.98
2023-04-21T23:08:12.395Z,50.83
2023-04-21T23:10:39.914Z,51.72
2023-04-21T23:13:07.337Z,51.76
2023-04-21T23:15:36.101Z,51.27
2023-04-21T23:18:03.612Z,51.63
2023-04-21T23:20:31.605Z,52.24
2023-04-21T23:22:59.233Z,52.24
2023-04-21T23:25:26.771Z,52.59
2023-04-21T23:27:54.152Z,51.49
2023-04-21T23:30:21.618Z,51.96
2023-04-21T23:32:50.608Z,53.55
2023-04-21T23:35:18.497Z,52.09
2023-04-21T23:37:46.458Z,51.00
2023-04-21T23:40:14.232Z,52.19
2023-04-21T23:42:41.759Z,52.88
2023-04-21T23:45:14.852Z,52.21
2023-04-21T23:47:42.404Z,52.63
2023-04-21T23:50:12.464Z,51.12
2023-04-21T23:52:42.012Z,52.23
2023-04-21T23:55:11.821Z,52.06
2023-04-21T23:57:39.560Z,52.29
